sensor_id;sensor_type;location;lat;lon;timestamp;temperature;humidity
40676;DHT22;26359;48.750;9.314;2022-12-05T00:01:21;3.00;99.90
40676;DHT22;26359;48.750;9.314;2022-12-05T00:03:55;3.00;99.90
40676;DHT22;26359;48.750;9.314;2022-12-05T00:06:21;3.00;99.90
40676;DHT22;26359;48.750;9.314;2022-12-05T00:08:48;3.10;99.90
40676;DHT22;26359;48.750;9.314;2022-12-05T00:11:19;3.00;99.90
40676;DHT22;26359;48.750;9.314;2022-12-05T00:13:46;3.10;99.90
40676;DHT22;26359;48.750;9.314;2022-12-05T00:16:14;3.10;99.90
40676;DHT22;26359;48.750;9.314;2022-12-05T00:18:40;3.00;99.90
40676;DHT22;26359;48.750;9.314;2022-12-05T00:21:06;3.10;99.90
40676;DHT22;26359;48.750;9.314;2022-12-05T00:23:32;3.10;99.90
40676;DHT22;26359;48.750;9.314;2022-12-05T00:26:03;3.10;99.90
40676;DHT22;26359;48.750;9.314;2022-12-05T00:28:30;3.20;99.90
40676;DHT22;26359;48.750;9.314;2022-12-05T00:30:56;3.10;99.90
40676;DHT22;26359;48.750;9.314;2022-12-05T00:33:22;3.10;99.90
40676;DHT22;26359;48.750;9.314;2022-12-05T00:35:47;3.20;99.90
40676;DHT22;26359;48.750;9.314;2022-12-05T00:38:13;3.10;99.90
40676;DHT22;26359;48.750;9.314;2022-12-05T00:40:38;3.10;99.90
40676;DHT22;26359;48.750;9.314;2022-12-05T00:43:04;3.10;99.90
40676;DHT22;26359;48.750;9.314;2022-12-05T00:45:29;3.10;99.90
40676;DHT22;26359;48.750;9.314;2022-12-05T00:47:55;3.20;99.90
40676;DHT22;26359;48.750;9.314;2022-12-05T00:50:20;3.10;99.90
40676;DHT22;26359;48.750;9.314;2022-12-05T00:52:46;3.00;99.90
40676;DHT22;26359;48.750;9.314;2022-12-05T00:55:11;3.00;99.90
40676;DHT22;26359;48.750;9.314;2022-12-05T00:57:37;3.00;99.90
40676;DHT22;26359;48.750;9.314;2022-12-05T01:00:04;3.00;99.90
40676;DHT22;26359;48.750;9.314;2022-12-05T01:02:30;3.00;99.90
40676;DHT22;26359;48.750;9.314;2022-12-05T01:04:55;3.00;99.90
40676;DHT22;26359;48.750;9.314;2022-12-05T01:07:21;3.10;99.90
40676;DHT22;26359;48.750;9.314;2022-12-05T01:09:46;3.10;99.90
40676;DHT22;26359;48.750;9.314;2022-12-05T01:12:12;3.00;99.90
40676;DHT22;26359;48.750;9.314;2022-12-05T01:14:37;3.10;99.90
40676;DHT22;26359;48.750;9.314;2022-12-05T01:17:03;3.00;99.90
40676;DHT22;26359;48.750;9.314;2022-12-05T01:19:30;2.90;99.90
40676;DHT22;26359;48.750;9.314;2022-12-05T01:21:57;3.00;99.90
40676;DHT22;26359;48.750;9.314;2022-12-05T01:24:24;2.90;99.90
40676;DHT22;26359;48.750;9.314;2022-12-05T01:26:50;3.00;99.90
40676;DHT22;26359;48.750;9.314;2022-12-05T01:29:18;3.00;99.90
40676;DHT22;26359;48.750;9.314;2022-12-05T01:31:44;2.90;99.90
40676;DHT22;26359;48.750;9.314;2022-12-05T01:34:12;3.00;99.90
40676;DHT22;26359;48.750;9.314;2022-12-05T01:36:38;3.00;99.90
40676;DHT22;26359;48.750;9.314;2022-12-05T01:39:05;3.00;99.90
40676;DHT22;26359;48.750;9.314;2022-12-05T01:41:34;2.90;99.90
40676;DHT22;26359;48.750;9.314;2022-12-05T01:46:53;3.00;99.90
40676;DHT22;26359;48.750;9.314;2022-12-05T01:49:24;2.90;99.90
40676;DHT22;26359;48.750;9.314;2022-12-05T01:52:15;3.00;99.90
40676;DHT22;26359;48.750;9.314;2022-12-05T01:54:43;3.10;99.90
40676;DHT22;26359;48.750;9.314;2022-12-05T01:57:12;3.10;99.90
40676;DHT22;26359;48.750;9.314;2022-12-05T01:59:40;3.00;99.90
40676;DHT22;26359;48.750;9.314;2022-12-05T02:02:08;3.10;99.90
40676;DHT22;26359;48.750;9.314;2022-12-05T02:04:41;3.10;99.90
40676;DHT22;26359;48.750;9.314;2022-12-05T02:07:07;3.20;99.90
40676;DHT22;26359;48.750;9.314;2022-12-05T02:09:32;3.20;99.90
40676;DHT22;26359;48.750;9.314;2022-12-05T02:12:00;3.10;99.90
40676;DHT22;26359;48.750;9.314;2022-12-05T02:14:38;3.10;99.90
40676;DHT22;26359;48.750;9.314;2022-12-05T02:17:09;3.10;99.90
40676;DHT22;26359;48.750;9.314;2022-12-05T02:25:34;3.10;99.90
40676;DHT22;26359;48.750;9.314;2022-12-05T02:28:30;3.10;99.90
40676;DHT22;26359;48.750;9.314;2022-12-05T02:31:17;3.20;99.90
40676;DHT22;26359;48.750;9.314;2022-12-05T02:33:49;3.10;99.90
40676;DHT22;26359;48.750;9.314;2022-12-05T02:36:34;3.00;99.90
40676;DHT22;26359;48.750;9.314;2022-12-05T02:41:33;3.10;99.90
40676;DHT22;26359;48.750;9.314;2022-12-05T02:46:36;3.10;99.90
40676;DHT22;26359;48.750;9.314;2022-12-05T02:49:06;3.20;99.90
40676;DHT22;26359;48.750;9.314;2022-12-05T02:51:37;3.10;99.90
40676;DHT22;26359;48.750;9.314;2022-12-05T02:54:07;3.10;99.90
40676;DHT22;26359;48.750;9.314;2022-12-05T02:56:36;3.10;99.90
40676;DHT22;26359;48.750;9.314;2022-12-05T02:59:02;3.10;99.90
40676;DHT22;26359;48.750;9.314;2022-12-05T03:01:30;3.10;99.90
40676;DHT22;26359;48.750;9.314;2022-12-05T03:03:58;3.10;99.90
40676;DHT22;26359;48.750;9.314;2022-12-05T03:06:31;3.10;99.90
40676;DHT22;26359;48.750;9.314;2022-12-05T03:09:11;3.20;99.90
40676;DHT22;26359;48.750;9.314;2022-12-05T03:11:52;3.10;99.90
40676;DHT22;26359;48.750;9.314;2022-12-05T03:14:29;3.10;99.90
40676;DHT22;26359;48.750;9.314;2022-12-05T03:17:00;3.10;99.90
40676;DHT22;26359;48.750;9.314;2022-12-05T03:22:01;3.20;99.90
40676;DHT22;26359;48.750;9.314;2022-12-05T03:24:28;3.10;99.90
40676;DHT22;26359;48.750;9.314;2022-12-05T03:27:01;3.10;99.90
40676;DHT22;26359;48.750;9.314;2022-12-05T03:29:33;3.10;99.90
40676;DHT22;26359;48.750;9.314;2022-12-05T03:32:18;3.20;99.90
40676;DHT22;26359;48.750;9.314;2022-12-05T03:37:46;3.30;99.90
40676;DHT22;26359;48.750;9.314;2022-12-05T03:42:41;3.20;99.90
40676;DHT22;26359;48.750;9.314;2022-12-05T03:45:11;3.30;99.90
40676;DHT22;26359;48.750;9.314;2022-12-05T03:48:03;3.30;99.90
40676;DHT22;26359;48.750;9.314;2022-12-05T03:50:34;3.30;99.90
40676;DHT22;26359;48.750;9.314;2022-12-05T03:53:13;3.40;99.90
40676;DHT22;26359;48.750;9.314;2022-12-05T03:55:40;3.40;99.90
40676;DHT22;26359;48.750;9.314;2022-12-05T03:58:30;3.40;99.90
40676;DHT22;26359;48.750;9.314;2022-12-05T04:00:58;3.40;99.90
40676;DHT22;26359;48.750;9.314;2022-12-05T04:03:47;3.30;99.90
40676;DHT22;26359;48.750;9.314;2022-12-05T04:06:29;3.40;99.90
40676;DHT22;26359;48.750;9.314;2022-12-05T04:09:19;3.40;99.90
40676;DHT22;26359;48.750;9.314;2022-12-05T04:11:50;3.40;99.90
40676;DHT22;26359;48.750;9.314;2022-12-05T04:14:22;3.40;99.90
40676;DHT22;26359;48.750;9.314;2022-12-05T04:16:54;3.40;99.90
40676;DHT22;26359;48.750;9.314;2022-12-05T04:22:15;3.40;99.90
40676;DHT22;26359;48.750;9.314;2022-12-05T04:24:41;3.40;99.90
40676;DHT22;26359;48.750;9.314;2022-12-05T04:28:19;3.40;99.90
40676;DHT22;26359;48.750;9.314;2022-12-05T04:30:35;3.50;99.90
40676;DHT22;26359;48.750;9.314;2022-12-05T04:34:02;3.50;99.90
40676;DHT22;26359;48.750;9.314;2022-12-05T04:41:14;3.40;99.90
40676;DHT22;26359;48.750;9.314;2022-12-05T04:43:42;3.50;99.90
40676;DHT22;26359;48.750;9.314;2022-12-05T04:46:11;3.40;99.90
40676;DHT22;26359;48.750;9.314;2022-12-05T04:48:40;3.40;99.90
40676;DHT22;26359;48.750;9.314;2022-12-05T04:51:08;3.40;99.90
40676;DHT22;26359;48.750;9.314;2022-12-05T04:53:37;3.40;99.90
40676;DHT22;26359;48.750;9.314;2022-12-05T04:56:05;3.40;99.90
40676;DHT22;26359;48.750;9.314;2022-12-05T04:58:31;3.50;99.90
40676;DHT22;26359;48.750;9.314;2022-12-05T05:01:09;3.50;99.90
40676;DHT22;26359;48.750;9.314;2022-12-05T05:03:52;3.50;99.90
40676;DHT22;26359;48.750;9.314;2022-12-05T05:06:19;3.50;99.90
40676;DHT22;26359;48.750;9.314;2022-12-05T05:08:50;3.50;99.90
40676;DHT22;26359;48.750;9.314;2022-12-05T05:11:27;3.60;99.90
40676;DHT22;26359;48.750;9.314;2022-12-05T05:13:53;3.60;99.90
40676;DHT22;26359;48.750;9.314;2022-12-05T05:16:21;3.60;99.90
40676;DHT22;26359;48.750;9.314;2022-12-05T05:18:48;3.60;99.90
40676;DHT22;26359;48.750;9.314;2022-12-05T05:21:38;3.60;99.90
40676;DHT22;26359;48.750;9.314;2022-12-05T05:24:08;3.50;99.90
40676;DHT22;26359;48.750;9.314;2022-12-05T05:26:36;3.50;99.90
40676;DHT22;26359;48.750;9.314;2022-12-05T05:29:03;3.50;99.90
40676;DHT22;26359;48.750;9.314;2022-12-05T05:31:29;3.40;99.90
40676;DHT22;26359;48.750;9.314;2022-12-05T05:33:55;3.40;99.90
40676;DHT22;26359;48.750;9.314;2022-12-05T05:36:23;3.40;99.90
40676;DHT22;26359;48.750;9.314;2022-12-05T05:38:51;3.40;99.90
40676;DHT22;26359;48.750;9.314;2022-12-05T05:41:19;3.50;99.90
40676;DHT22;26359;48.750;9.314;2022-12-05T05:43:46;3.50;99.90
40676;DHT22;26359;48.750;9.314;2022-12-05T05:46:12;3.50;99.90
40676;DHT22;26359;48.750;9.314;2022-12-05T05:48:38;3.60;99.90
40676;DHT22;26359;48.750;9.314;2022-12-05T05:51:06;3.60;99.90
40676;DHT22;26359;48.750;9.314;2022-12-05T05:53:32;3.50;99.90
40676;DHT22;26359;48.750;9.314;2022-12-05T05:56:05;3.60;99.90
40676;DHT22;26359;48.750;9.314;2022-12-05T05:58:31;3.60;99.90
40676;DHT22;26359;48.750;9.314;2022-12-05T06:01:23;3.60;99.90
40676;DHT22;26359;48.750;9.314;2022-12-05T06:03:49;3.60;99.90
40676;DHT22;26359;48.750;9.314;2022-12-05T06:06:15;3.60;99.90
40676;DHT22;26359;48.750;9.314;2022-12-05T06:08:42;3.70;99.90
40676;DHT22;26359;48.750;9.314;2022-12-05T06:11:19;3.70;99.90
40676;DHT22;26359;48.750;9.314;2022-12-05T06:13:45;3.70;99.90
40676;DHT22;26359;48.750;9.314;2022-12-05T06:16:13;3.70;99.90
40676;DHT22;26359;48.750;9.314;2022-12-05T06:18:40;3.70;99.90
40676;DHT22;26359;48.750;9.314;2022-12-05T06:21:06;3.70;99.90
40676;DHT22;26359;48.750;9.314;2022-12-05T06:23:36;3.70;99.90
40676;DHT22;26359;48.750;9.314;2022-12-05T06:26:03;3.70;99.90
40676;DHT22;26359;48.750;9.314;2022-12-05T06:28:29;3.70;99.90
40676;DHT22;26359;48.750;9.314;2022-12-05T06:30:55;3.80;99.90
40676;DHT22;26359;48.750;9.314;2022-12-05T06:33:20;3.80;99.90
40676;DHT22;26359;48.750;9.314;2022-12-05T06:35:46;3.80;99.90
40676;DHT22;26359;48.750;9.314;2022-12-05T06:38:12;3.80;99.90
40676;DHT22;26359;48.750;9.314;2022-12-05T06:40:42;3.80;99.90
40676;DHT22;26359;48.750;9.314;2022-12-05T06:43:09;3.80;99.90
40676;DHT22;26359;48.750;9.314;2022-12-05T06:45:38;3.80;99.90
40676;DHT22;26359;48.750;9.314;2022-12-05T06:48:05;3.80;99.90
40676;DHT22;26359;48.750;9.314;2022-12-05T06:50:31;3.70;99.90
40676;DHT22;26359;48.750;9.314;2022-12-05T06:52:56;3.70;99.90
40676;DHT22;26359;48.750;9.314;2022-12-05T06:55:22;3.70;99.90
40676;DHT22;26359;48.750;9.314;2022-12-05T06:57:47;3.60;99.90
40676;DHT22;26359;48.750;9.314;2022-12-05T07:00:13;3.60;99.90
40676;DHT22;26359;48.750;9.314;2022-12-05T07:02:58;3.60;99.90
40676;DHT22;26359;48.750;9.314;2022-12-05T07:05:23;3.70;99.90
40676;DHT22;26359;48.750;9.314;2022-12-05T07:07:49;3.80;99.90
40676;DHT22;26359;48.750;9.314;2022-12-05T07:10:14;3.70;99.90
40676;DHT22;26359;48.750;9.314;2022-12-05T07:12:40;3.80;99.90
40676;DHT22;26359;48.750;9.314;2022-12-05T07:15:06;3.80;99.90
40676;DHT22;26359;48.750;9.314;2022-12-05T07:17:35;3.80;99.90
40676;DHT22;26359;48.750;9.314;2022-12-05T07:20:01;3.80;99.90
40676;DHT22;26359;48.750;9.314;2022-12-05T07:22:27;3.80;99.90
40676;DHT22;26359;48.750;9.314;2022-12-05T07:24:52;3.70;99.90
40676;DHT22;26359;48.750;9.314;2022-12-05T07:27:18;3.80;99.90
40676;DHT22;26359;48.750;9.314;2022-12-05T07:29:44;3.70;99.90
40676;DHT22;26359;48.750;9.314;2022-12-05T07:32:09;3.70;99.90
40676;DHT22;26359;48.750;9.314;2022-12-05T07:34:35;3.70;99.90
40676;DHT22;26359;48.750;9.314;2022-12-05T07:37:01;3.80;99.90
40676;DHT22;26359;48.750;9.314;2022-12-05T07:39:26;3.80;99.90
40676;DHT22;26359;48.750;9.314;2022-12-05T07:41:52;3.80;99.90
40676;DHT22;26359;48.750;9.314;2022-12-05T07:44:17;3.90;99.90
40676;DHT22;26359;48.750;9.314;2022-12-05T07:46:43;3.90;99.90
40676;DHT22;26359;48.750;9.314;2022-12-05T07:49:09;3.90;99.90
40676;DHT22;26359;48.750;9.314;2022-12-05T07:51:34;4.00;99.90
40676;DHT22;26359;48.750;9.314;2022-12-05T07:54:01;4.10;99.90
40676;DHT22;26359;48.750;9.314;2022-12-05T07:56:27;4.10;99.90
40676;DHT22;26359;48.750;9.314;2022-12-05T07:58:52;4.10;99.90
40676;DHT22;26359;48.750;9.314;2022-12-05T08:01:23;4.10;99.90
40676;DHT22;26359;48.750;9.314;2022-12-05T08:03:51;4.20;99.90
40676;DHT22;26359;48.750;9.314;2022-12-05T08:06:19;4.20;99.90
40676;DHT22;26359;48.750;9.314;2022-12-05T08:08:46;4.20;99.90
40676;DHT22;26359;48.750;9.314;2022-12-05T08:13:42;4.30;99.90
40676;DHT22;26359;48.750;9.314;2022-12-05T08:16:11;4.40;99.90
40676;DHT22;26359;48.750;9.314;2022-12-05T08:18:36;4.40;99.90
40676;DHT22;26359;48.750;9.314;2022-12-05T08:21:06;4.40;99.90
40676;DHT22;26359;48.750;9.314;2022-12-05T08:23:33;4.40;99.90
40676;DHT22;26359;48.750;9.314;2022-12-05T08:26:07;4.40;99.90
40676;DHT22;26359;48.750;9.314;2022-12-05T08:28:34;4.40;99.90
40676;DHT22;26359;48.750;9.314;2022-12-05T08:31:14;4.40;99.90
40676;DHT22;26359;48.750;9.314;2022-12-05T08:33:41;4.40;99.90
40676;DHT22;26359;48.750;9.314;2022-12-05T08:36:10;4.40;99.90
40676;DHT22;26359;48.750;9.314;2022-12-05T08:38:36;4.40;99.90
40676;DHT22;26359;48.750;9.314;2022-12-05T08:41:03;4.40;99.90
40676;DHT22;26359;48.750;9.314;2022-12-05T08:43:29;4.50;99.90
40676;DHT22;26359;48.750;9.314;2022-12-05T08:45:56;4.50;99.90
40676;DHT22;26359;48.750;9.314;2022-12-05T08:48:22;4.50;99.90
40676;DHT22;26359;48.750;9.314;2022-12-05T08:50:48;4.50;99.90
40676;DHT22;26359;48.750;9.314;2022-12-05T08:53:14;4.40;99.90
40676;DHT22;26359;48.750;9.314;2022-12-05T08:55:39;4.50;99.90
40676;DHT22;26359;48.750;9.314;2022-12-05T08:58:05;4.60;99.90
40676;DHT22;26359;48.750;9.314;2022-12-05T09:00:31;4.60;99.90
40676;DHT22;26359;48.750;9.314;2022-12-05T09:02:57;4.60;99.90
40676;DHT22;26359;48.750;9.314;2022-12-05T09:05:24;4.60;99.90
40676;DHT22;26359;48.750;9.314;2022-12-05T09:07:49;4.60;99.90
40676;DHT22;26359;48.750;9.314;2022-12-05T09:10:15;4.70;99.90
40676;DHT22;26359;48.750;9.314;2022-12-05T09:12:41;4.70;99.90
40676;DHT22;26359;48.750;9.314;2022-12-05T09:15:08;4.70;99.90
40676;DHT22;26359;48.750;9.314;2022-12-05T09:17:34;4.60;99.90
40676;DHT22;26359;48.750;9.314;2022-12-05T09:20:00;4.70;99.90
40676;DHT22;26359;48.750;9.314;2022-12-05T09:22:26;4.80;99.90
40676;DHT22;26359;48.750;9.314;2022-12-05T09:24:51;4.80;99.90
40676;DHT22;26359;48.750;9.314;2022-12-05T09:27:17;4.80;99.90
40676;DHT22;26359;48.750;9.314;2022-12-05T09:29:43;4.90;99.90
40676;DHT22;26359;48.750;9.314;2022-12-05T09:32:09;4.90;99.90
40676;DHT22;26359;48.750;9.314;2022-12-05T09:34:36;4.90;99.90
40676;DHT22;26359;48.750;9.314;2022-12-05T09:37:03;5.00;99.90
40676;DHT22;26359;48.750;9.314;2022-12-05T09:39:29;5.00;99.90
40676;DHT22;26359;48.750;9.314;2022-12-05T09:47:13;5.20;99.90
40676;DHT22;26359;48.750;9.314;2022-12-05T09:49:46;5.20;99.90
40676;DHT22;26359;48.750;9.314;2022-12-05T09:52:31;5.20;99.90
40676;DHT22;26359;48.750;9.314;2022-12-05T09:55:37;5.20;99.90
40676;DHT22;26359;48.750;9.314;2022-12-05T09:57:59;5.20;99.90
40676;DHT22;26359;48.750;9.314;2022-12-05T10:00:27;5.20;99.90
40676;DHT22;26359;48.750;9.314;2022-12-05T10:03:24;5.20;99.90
40676;DHT22;26359;48.750;9.314;2022-12-05T10:08:37;5.10;99.90
40676;DHT22;26359;48.750;9.314;2022-12-05T10:14:21;5.10;99.90
40676;DHT22;26359;48.750;9.314;2022-12-05T10:16:55;5.20;99.90
40676;DHT22;26359;48.750;9.314;2022-12-05T10:19:27;5.20;99.90
40676;DHT22;26359;48.750;9.314;2022-12-05T10:22:07;5.30;99.90
40676;DHT22;26359;48.750;9.314;2022-12-05T10:24:43;5.20;99.90
40676;DHT22;26359;48.750;9.314;2022-12-05T10:27:22;5.30;99.90
40676;DHT22;26359;48.750;9.314;2022-12-05T10:29:56;5.20;99.90
40676;DHT22;26359;48.750;9.314;2022-12-05T10:32:45;5.20;99.90
40676;DHT22;26359;48.750;9.314;2022-12-05T10:35:22;5.30;99.90
40676;DHT22;26359;48.750;9.314;2022-12-05T10:38:02;5.40;99.90
40676;DHT22;26359;48.750;9.314;2022-12-05T10:40:44;5.40;99.90
40676;DHT22;26359;48.750;9.314;2022-12-05T10:43:15;5.40;99.90
40676;DHT22;26359;48.750;9.314;2022-12-05T10:45:45;5.40;99.90
40676;DHT22;26359;48.750;9.314;2022-12-05T10:48:13;5.50;99.90
40676;DHT22;26359;48.750;9.314;2022-12-05T10:50:39;5.50;99.90
40676;DHT22;26359;48.750;9.314;2022-12-05T10:53:06;5.60;99.90
40676;DHT22;26359;48.750;9.314;2022-12-05T10:55:51;5.70;99.90
40676;DHT22;26359;48.750;9.314;2022-12-05T10:58:35;5.70;99.90
40676;DHT22;26359;48.750;9.314;2022-12-05T11:01:08;5.70;99.90
40676;DHT22;26359;48.750;9.314;2022-12-05T11:03:38;5.70;99.90
40676;DHT22;26359;48.750;9.314;2022-12-05T11:06:37;5.80;99.90
40676;DHT22;26359;48.750;9.314;2022-12-05T11:09:38;5.90;99.90
40676;DHT22;26359;48.750;9.314;2022-12-05T11:12:14;5.90;99.90
40676;DHT22;26359;48.750;9.314;2022-12-05T11:14:52;5.90;99.90
40676;DHT22;26359;48.750;9.314;2022-12-05T11:17:33;6.00;99.90
40676;DHT22;26359;48.750;9.314;2022-12-05T11:19:59;6.10;99.90
40676;DHT22;26359;48.750;9.314;2022-12-05T11:22:33;6.10;99.90
40676;DHT22;26359;48.750;9.314;2022-12-05T11:24:59;6.20;99.90
40676;DHT22;26359;48.750;9.314;2022-12-05T11:27:30;6.30;99.90
40676;DHT22;26359;48.750;9.314;2022-12-05T11:32:36;6.50;99.90
40676;DHT22;26359;48.750;9.314;2022-12-05T11:37:52;6.60;99.90
40676;DHT22;26359;48.750;9.314;2022-12-05T11:46:07;6.90;99.90
40676;DHT22;26359;48.750;9.314;2022-12-05T11:54:24;7.00;99.90
40676;DHT22;26359;48.750;9.314;2022-12-05T11:57:20;7.00;99.90
40676;DHT22;26359;48.750;9.314;2022-12-05T12:00:11;7.00;99.90
40676;DHT22;26359;48.750;9.314;2022-12-05T12:06:12;7.00;99.90
40676;DHT22;26359;48.750;9.314;2022-12-05T12:09:15;7.00;99.90
40676;DHT22;26359;48.750;9.314;2022-12-05T12:18:57;7.00;99.90
40676;DHT22;26359;48.750;9.314;2022-12-05T12:21:13;6.90;99.90
40676;DHT22;26359;48.750;9.314;2022-12-05T12:26:28;6.80;99.90
40676;DHT22;26359;48.750;9.314;2022-12-05T12:29:21;6.90;99.90
40676;DHT22;26359;48.750;9.314;2022-12-05T12:32:21;6.80;99.90
40676;DHT22;26359;48.750;9.314;2022-12-05T12:35:25;6.70;99.90
40676;DHT22;26359;48.750;9.314;2022-12-05T12:47:03;6.90;99.90
40676;DHT22;26359;48.750;9.314;2022-12-05T12:49:59;6.90;99.90
40676;DHT22;26359;48.750;9.314;2022-12-05T12:52:49;6.90;99.90
40676;DHT22;26359;48.750;9.314;2022-12-05T12:55:29;6.90;99.90
40676;DHT22;26359;48.750;9.314;2022-12-05T13:01:09;6.90;99.90
40676;DHT22;26359;48.750;9.314;2022-12-05T13:03:50;6.90;99.90
40676;DHT22;26359;48.750;9.314;2022-12-05T13:06:25;7.00;99.90
40676;DHT22;26359;48.750;9.314;2022-12-05T13:08:56;6.90;99.90
40676;DHT22;26359;48.750;9.314;2022-12-05T13:11:23;6.80;99.90
40676;DHT22;26359;48.750;9.314;2022-12-05T13:13:54;6.80;99.90
40676;DHT22;26359;48.750;9.314;2022-12-05T13:16:31;6.80;99.90
40676;DHT22;26359;48.750;9.314;2022-12-05T13:18:56;6.80;99.90
40676;DHT22;26359;48.750;9.314;2022-12-05T13:21:23;6.80;99.90
40676;DHT22;26359;48.750;9.314;2022-12-05T13:23:52;6.80;99.90
40676;DHT22;26359;48.750;9.314;2022-12-05T13:26:20;6.80;99.90
40676;DHT22;26359;48.750;9.314;2022-12-05T13:28:56;6.70;99.90
40676;DHT22;26359;48.750;9.314;2022-12-05T13:31:42;6.70;99.90
40676;DHT22;26359;48.750;9.314;2022-12-05T13:36:54;6.70;99.90
40676;DHT22;26359;48.750;9.314;2022-12-05T13:39:40;6.70;99.90
40676;DHT22;26359;48.750;9.314;2022-12-05T13:42:27;6.80;99.90
40676;DHT22;26359;48.750;9.314;2022-12-05T13:45:09;6.80;99.90
40676;DHT22;26359;48.750;9.314;2022-12-05T13:47:54;6.80;99.90
40676;DHT22;26359;48.750;9.314;2022-12-05T13:52:57;6.80;99.90
40676;DHT22;26359;48.750;9.314;2022-12-05T13:55:28;6.80;99.90
40676;DHT22;26359;48.750;9.314;2022-12-05T13:58:00;6.80;99.90
40676;DHT22;26359;48.750;9.314;2022-12-05T14:00:34;6.80;99.90
40676;DHT22;26359;48.750;9.314;2022-12-05T14:03:08;6.80;99.90
40676;DHT22;26359;48.750;9.314;2022-12-05T14:05:48;6.80;99.90
40676;DHT22;26359;48.750;9.314;2022-12-05T14:15:47;6.60;99.90
40676;DHT22;26359;48.750;9.314;2022-12-05T14:18:24;6.70;99.90
40676;DHT22;26359;48.750;9.314;2022-12-05T14:21:21;6.70;99.90
40676;DHT22;26359;48.750;9.314;2022-12-05T14:32:00;7.10;99.90
40676;DHT22;26359;48.750;9.314;2022-12-05T14:34:32;7.10;99.90
40676;DHT22;26359;48.750;9.314;2022-12-05T14:37:02;7.10;99.90
40676;DHT22;26359;48.750;9.314;2022-12-05T14:42:37;7.00;99.90
40676;DHT22;26359;48.750;9.314;2022-12-05T14:45:32;6.80;99.90
40676;DHT22;26359;48.750;9.314;2022-12-05T14:48:35;6.80;99.90
40676;DHT22;26359;48.750;9.314;2022-12-05T14:54:03;6.70;99.90
40676;DHT22;26359;48.750;9.314;2022-12-05T14:56:31;6.70;99.90
40676;DHT22;26359;48.750;9.314;2022-12-05T14:59:04;6.60;99.90
40676;DHT22;26359;48.750;9.314;2022-12-05T15:01:39;6.60;99.90
40676;DHT22;26359;48.750;9.314;2022-12-05T15:07:08;6.60;99.90
40676;DHT22;26359;48.750;9.314;2022-12-05T15:12:37;6.50;99.90
40676;DHT22;26359;48.750;9.314;2022-12-05T15:17:48;6.40;99.90
40676;DHT22;26359;48.750;9.314;2022-12-05T15:20:37;6.40;99.90
40676;DHT22;26359;48.750;9.314;2022-12-05T15:23:38;6.40;99.90
40676;DHT22;26359;48.750;9.314;2022-12-05T15:29:02;6.30;99.90
40676;DHT22;26359;48.750;9.314;2022-12-05T15:31:29;6.30;99.90
40676;DHT22;26359;48.750;9.314;2022-12-05T15:33:59;6.20;99.90
40676;DHT22;26359;48.750;9.314;2022-12-05T15:36:31;6.20;99.90
40676;DHT22;26359;48.750;9.314;2022-12-05T15:39:02;6.10;99.90
40676;DHT22;26359;48.750;9.314;2022-12-05T15:41:28;6.10;99.90
40676;DHT22;26359;48.750;9.314;2022-12-05T15:43:55;6.10;99.90
40676;DHT22;26359;48.750;9.314;2022-12-05T15:48:53;5.90;99.90
40676;DHT22;26359;48.750;9.314;2022-12-05T15:51:23;5.80;99.90
40676;DHT22;26359;48.750;9.314;2022-12-05T15:53:56;5.80;99.90
40676;DHT22;26359;48.750;9.314;2022-12-05T15:56:27;5.80;99.90
40676;DHT22;26359;48.750;9.314;2022-12-05T15:58:58;5.70;99.90
40676;DHT22;26359;48.750;9.314;2022-12-05T16:01:26;5.60;99.90
40676;DHT22;26359;48.750;9.314;2022-12-05T16:04:21;5.50;99.90
40676;DHT22;26359;48.750;9.314;2022-12-05T16:06:55;5.50;99.90
40676;DHT22;26359;48.750;9.314;2022-12-05T16:09:27;5.40;99.90
40676;DHT22;26359;48.750;9.314;2022-12-05T16:11:55;5.30;99.90
40676;DHT22;26359;48.750;9.314;2022-12-05T16:14:23;5.30;99.90
40676;DHT22;26359;48.750;9.314;2022-12-05T16:16:52;5.30;99.90
40676;DHT22;26359;48.750;9.314;2022-12-05T16:19:23;5.30;99.90
40676;DHT22;26359;48.750;9.314;2022-12-05T16:24:46;5.30;99.90
40676;DHT22;26359;48.750;9.314;2022-12-05T16:27:23;5.20;99.90
40676;DHT22;26359;48.750;9.314;2022-12-05T16:32:38;5.20;99.90
40676;DHT22;26359;48.750;9.314;2022-12-05T16:38:22;5.20;99.90
40676;DHT22;26359;48.750;9.314;2022-12-05T16:41:01;5.20;99.90
40676;DHT22;26359;48.750;9.314;2022-12-05T16:45:55;5.10;99.90
40676;DHT22;26359;48.750;9.314;2022-12-05T16:48:26;5.10;99.90
40676;DHT22;26359;48.750;9.314;2022-12-05T16:53:40;5.00;99.90
40676;DHT22;26359;48.750;9.314;2022-12-05T16:56:12;5.00;99.90
40676;DHT22;26359;48.750;9.314;2022-12-05T16:58:38;5.00;99.90
40676;DHT22;26359;48.750;9.314;2022-12-05T17:01:05;4.90;99.90
40676;DHT22;26359;48.750;9.314;2022-12-05T17:03:32;5.00;99.90
40676;DHT22;26359;48.750;9.314;2022-12-05T17:05:58;5.00;99.90
40676;DHT22;26359;48.750;9.314;2022-12-05T17:08:25;5.00;99.90
40676;DHT22;26359;48.750;9.314;2022-12-05T17:10:51;5.00;99.90
40676;DHT22;26359;48.750;9.314;2022-12-05T17:13:18;5.00;99.90
40676;DHT22;26359;48.750;9.314;2022-12-05T17:15:44;5.10;99.90
40676;DHT22;26359;48.750;9.314;2022-12-05T17:18:16;5.10;99.90
40676;DHT22;26359;48.750;9.314;2022-12-05T17:20:50;5.10;99.90
40676;DHT22;26359;48.750;9.314;2022-12-05T17:23:17;5.10;99.90
40676;DHT22;26359;48.750;9.314;2022-12-05T17:25:48;5.10;99.90
40676;DHT22;26359;48.750;9.314;2022-12-05T17:28:14;5.10;99.90
40676;DHT22;26359;48.750;9.314;2022-12-05T17:30:40;5.10;99.90
40676;DHT22;26359;48.750;9.314;2022-12-05T17:33:09;5.10;99.90
40676;DHT22;26359;48.750;9.314;2022-12-05T17:35:35;5.10;99.90
40676;DHT22;26359;48.750;9.314;2022-12-05T17:38:02;5.30;99.90
40676;DHT22;26359;48.750;9.314;2022-12-05T17:40:28;5.20;99.90
40676;DHT22;26359;48.750;9.314;2022-12-05T17:42:54;5.10;99.90
40676;DHT22;26359;48.750;9.314;2022-12-05T17:45:20;5.10;99.90
40676;DHT22;26359;48.750;9.314;2022-12-05T17:47:45;5.00;99.90
40676;DHT22;26359;48.750;9.314;2022-12-05T17:50:13;4.90;99.90
40676;DHT22;26359;48.750;9.314;2022-12-05T17:52:39;4.90;99.90
40676;DHT22;26359;48.750;9.314;2022-12-05T17:55:06;4.90;99.90
40676;DHT22;26359;48.750;9.314;2022-12-05T17:57:32;4.90;99.90
40676;DHT22;26359;48.750;9.314;2022-12-05T17:59:57;4.90;99.90
40676;DHT22;26359;48.750;9.314;2022-12-05T18:02:23;5.00;99.90
40676;DHT22;26359;48.750;9.314;2022-12-05T18:04:48;5.00;99.90
40676;DHT22;26359;48.750;9.314;2022-12-05T18:07:14;5.00;99.90
40676;DHT22;26359;48.750;9.314;2022-12-05T18:09:39;5.00;99.90
40676;DHT22;26359;48.750;9.314;2022-12-05T18:12:05;5.00;99.90
40676;DHT22;26359;48.750;9.314;2022-12-05T18:14:31;5.00;99.90
40676;DHT22;26359;48.750;9.314;2022-12-05T18:17:01;4.90;99.90
40676;DHT22;26359;48.750;9.314;2022-12-05T18:19:26;5.00;99.90
40676;DHT22;26359;48.750;9.314;2022-12-05T18:21:52;4.90;99.90
40676;DHT22;26359;48.750;9.314;2022-12-05T18:24:18;5.00;99.90
40676;DHT22;26359;48.750;9.314;2022-12-05T18:26:43;5.00;99.90
40676;DHT22;26359;48.750;9.314;2022-12-05T18:29:09;5.00;99.90
40676;DHT22;26359;48.750;9.314;2022-12-05T18:31:34;5.00;99.90